createdAt,value
2023-04-16T00:01:25.840Z,38.30
2023-04-16T00:03:52.506Z,47.17
2023-04-16T00:06:19.182Z,40.72
2023-04-16T00:08:45.686Z,37.50
2023-04-16T00:11:12.362Z,32.45
2023-04-16T00:13:38.843Z,41.75
2023-04-16T00:16:05.634Z,41.60
2023-04-16T00:18:32.088Z,39.13
2023-04-16T00:20:59.548Z,37.33
2023-04-16T00:23:25.977Z,38.63
2023-04-16T00:25:53.707Z,39.90
2023-04-16T00:28:20.245Z,33.60
2023-04-16T00:30:46.726Z,37.63
2023-04-16T00:33:13.319Z,37.50
2023-04-16T00:35:39.815Z,39.25
2023-04-16T00:38:06.332Z,39.92
2023-04-16T00:40:32.755Z,34.88
2023-04-16T00:42:59.218Z,39.22
2023-04-16T00:45:25.769Z,36.25
2023-04-16T00:47:52.273Z,37.83
2023-04-16T00:50:18.993Z,35.13
2023-04-16T00:52:47.638Z,36.67
2023-04-16T00:55:18.941Z,35.05
2023-04-16T00:57:46.105Z,37.90
2023-04-16T01:00:13.258Z,36.08
2023-04-16T01:02:39.852Z,38.72
2023-04-16T01:05:06.696Z,39.90
2023-04-16T01:07:33.187Z,37.58
2023-04-16T01:09:59.669Z,35.03
2023-04-16T01:12:26.309Z,38.30
2023-04-16T01:14:53.010Z,31.92
2023-04-16T01:17:19.493Z,39.58
2023-04-16T01:19:48.836Z,42.05
2023-04-16T01:22:15.270Z,38.92
2023-04-16T01:24:41.820Z,37.92
2023-04-16T01:27:08.253Z,36.30
2023-04-16T01:29:35.068Z,38.75
2023-04-16T01:32:01.543Z,37.17
2023-04-16T01:34:28.006Z,39.60
2023-04-16T01:36:54.472Z,35.50
2023-04-16T01:39:21.032Z,38.72
2023-04-16T01:41:47.470Z,43.60
2023-04-16T01:44:13.910Z,45.75
2023-04-16T01:46:40.633Z,47.08
2023-04-16T01:49:07.580Z,37.55
2023-04-16T01:51:34.224Z,39.15
2023-04-16T01:54:01.174Z,36.70
2023-04-16T01:56:27.638Z,35.25
2023-04-16T01:58:54.180Z,39.40
2023-04-16T02:01:20.814Z,38.38
2023-04-16T02:03:47.754Z,38.90
2023-04-16T02:06:14.859Z,37.08
2023-04-16T02:08:41.746Z,34.38
2023-04-16T02:11:08.220Z,41.45
2023-04-16T02:13:34.894Z,38.47
2023-04-16T02:16:02.534Z,35.83
2023-04-16T02:18:29.101Z,35.45
2023-04-16T02:20:58.625Z,36.47
2023-04-16T02:23:25.066Z,38.47
2023-04-16T02:25:51.636Z,38.88
2023-04-16T02:28:18.230Z,34.22
2023-04-16T02:30:44.752Z,35.42
2023-04-16T02:33:12.404Z,38.83
2023-04-16T02:35:39.656Z,36.60
2023-04-16T02:38:06.311Z,34.05
2023-04-16T02:40:32.951Z,36.88
2023-04-16T02:42:59.461Z,36.55
2023-04-16T02:45:25.958Z,36.00
2023-04-16T02:47:52.498Z,38.08
2023-04-16T02:50:19.116Z,33.67
2023-04-16T02:52:45.808Z,31.75
2023-04-16T02:55:12.360Z,35.40
2023-04-16T02:57:38.867Z,44.63
2023-04-16T03:00:05.942Z,42.00
2023-04-16T03:02:32.517Z,38.90
2023-04-16T03:05:00.315Z,44.92
2023-04-16T03:07:26.746Z,36.92
2023-04-16T03:09:53.170Z,41.72
2023-04-16T03:12:19.586Z,36.67
2023-04-16T03:14:46.163Z,40.80
2023-04-16T03:17:12.670Z,34.92
2023-04-16T03:19:39.185Z,40.08
2023-04-16T03:22:05.738Z,35.80
2023-04-16T03:24:32.225Z,45.08
2023-04-16T03:26:59.002Z,37.25
2023-04-16T03:29:26.755Z,36.10
2023-04-16T03:34:43.873Z,38.58
2023-04-16T03:37:12.012Z,44.88
2023-04-16T03:39:38.650Z,36.80
2023-04-16T03:42:05.172Z,37.55
2023-04-16T03:44:31.661Z,34.97
2023-04-16T03:46:58.166Z,33.90
2023-04-16T03:49:24.643Z,33.42
2023-04-16T03:51:51.238Z,38.53
2023-04-16T03:54:19.269Z,36.95
2023-04-16T03:56:47.147Z,34.78
2023-04-16T03:59:13.653Z,37.17
2023-04-16T04:01:40.547Z,36.95
2023-04-16T04:04:07.564Z,36.75
2023-04-16T04:06:34.043Z,36.47
2023-04-16T04:09:03.845Z,35.70
2023-04-16T04:11:30.321Z,31.58
2023-04-16T04:13:56.870Z,35.33
2023-04-16T04:16:23.404Z,39.20
2023-04-16T04:18:50.107Z,34.22
2023-04-16T04:21:16.577Z,31.02
2023-04-16T04:23:43.675Z,35.28
2023-04-16T04:26:10.196Z,32.50
2023-04-16T04:28:36.699Z,38.00
2023-04-16T04:31:03.231Z,31.98
2023-04-16T04:33:29.675Z,33.42
2023-04-16T04:35:56.405Z,35.30
2023-04-16T04:38:25.235Z,33.75
2023-04-16T04:40:52.841Z,35.00
2023-04-16T04:43:20.312Z,38.90
2023-04-16T04:45:46.951Z,32.35
2023-04-16T04:48:13.592Z,36.10
2023-04-16T04:50:41.013Z,33.88
2023-04-16T04:53:10.132Z,36.83
2023-04-16T04:55:38.260Z,31.45
2023-04-16T04:58:08.407Z,32.72
2023-04-16T05:00:36.282Z,39.38
2023-04-16T05:03:04.549Z,33.85
2023-04-16T05:05:31.142Z,34.40
2023-04-16T05:07:57.735Z,37.60
2023-04-16T05:10:24.245Z,37.50
2023-04-16T05:12:50.764Z,34.42
2023-04-16T05:15:17.213Z,36.70
2023-04-16T05:17:43.732Z,35.90
2023-04-16T05:20:10.571Z,30.58
2023-04-16T05:22:37.253Z,35.38
2023-04-16T05:25:04.056Z,37.88
2023-04-16T05:27:30.738Z,32.63
2023-04-16T05:29:57.151Z,38.03
2023-04-16T05:32:26.299Z,33.13
2023-04-16T05:34:52.871Z,35.20
2023-04-16T05:37:19.342Z,32.30
2023-04-16T05:39:45.879Z,33.40
2023-04-16T05:42:12.288Z,38.05
2023-04-16T05:44:38.819Z,33.75
2023-04-16T05:47:07.334Z,33.83
2023-04-16T05:49:33.836Z,35.13
2023-04-16T05:52:00.816Z,32.15
2023-04-16T05:54:27.220Z,38.63
2023-04-16T05:56:53.793Z,34.50
2023-04-16T05:59:20.812Z,34.42
2023-04-16T06:01:47.267Z,33.58
2023-04-16T06:04:13.909Z,37.33
2023-04-16T06:06:40.548Z,32.67
2023-04-16T06:09:10.885Z,32.92
2023-04-16T06:11:37.574Z,32.47
2023-04-16T06:14:04.006Z,39.50
2023-04-16T06:16:30.454Z,30.20
2023-04-16T06:18:56.884Z,36.42
2023-04-16T06:21:23.574Z,33.58
2023-04-16T06:23:51.667Z,34.00
2023-04-16T06:26:18.320Z,32.78
2023-04-16T06:28:44.750Z,33.47
2023-04-16T06:31:13.451Z,34.67
2023-04-16T06:33:39.929Z,35.78
2023-04-16T06:36:06.533Z,33.58
2023-04-16T06:38:32.974Z,35.45
2023-04-16T06:40:59.648Z,32.03
2023-04-16T06:43:26.324Z,36.00
2023-04-16T06:45:52.787Z,29.65
2023-04-16T06:48:19.204Z,29.25
2023-04-16T06:50:45.755Z,34.00
2023-04-16T06:53:12.215Z,27.73
2023-04-16T06:55:38.713Z,33.85
2023-04-16T06:58:05.124Z,30.08
2023-04-16T07:00:31.592Z,33.33
2023-04-16T07:02:58.722Z,33.38
2023-04-16T07:05:25.739Z,32.10
2023-04-16T07:07:52.260Z,31.17
2023-04-16T07:10:18.676Z,27.25
2023-04-16T07:12:45.207Z,33.97
2023-04-16T07:15:11.768Z,32.70
2023-04-16T07:17:38.332Z,27.52
2023-04-16T07:20:05.570Z,32.30
2023-04-16T07:22:32.220Z,29.83
2023-04-16T07:24:58.635Z,30.00
2023-04-16T07:27:25.201Z,31.13
2023-04-16T07:29:51.673Z,31.38
2023-04-16T07:32:18.170Z,28.00
2023-04-16T07:34:44.896Z,29.00
2023-04-16T07:37:11.364Z,30.20
2023-04-16T07:39:37.770Z,30.80
2023-04-16T07:42:04.266Z,28.85
2023-04-16T07:44:30.778Z,30.23
2023-04-16T07:46:57.234Z,29.83
2023-04-16T07:49:23.748Z,28.65
2023-04-16T07:51:50.293Z,27.58
2023-04-16T07:54:16.842Z,25.65
2023-04-16T07:56:47.384Z,29.70
2023-04-16T07:59:22.824Z,28.83
2023-04-16T08:01:50.361Z,29.33
2023-04-16T08:04:23.004Z,25.67
2023-04-16T08:06:50.800Z,27.65
2023-04-16T08:09:17.524Z,25.23
2023-04-16T08:11:43.917Z,28.30
2023-04-16T08:14:10.500Z,27.25
2023-04-16T08:16:36.907Z,26.15
2023-04-16T08:19:03.619Z,28.70
2023-04-16T08:21:33.240Z,27.80
2023-04-16T08:24:02.196Z,27.42
2023-04-16T08:26:28.642Z,27.33
2023-04-16T08:28:55.042Z,28.02
2023-04-16T08:31:21.637Z,26.40
2023-04-16T08:33:48.082Z,25.48
2023-04-16T08:36:14.520Z,23.98
2023-04-16T08:38:40.981Z,25.88
2023-04-16T08:41:12.073Z,23.58
2023-04-16T08:43:45.594Z,27.63
2023-04-16T08:46:18.624Z,23.92
2023-04-16T08:48:49.034Z,24.70
2023-04-16T08:51:19.307Z,24.75
2023-04-16T08:53:53.007Z,24.52
2023-04-16T08:56:23.891Z,24.52
2023-04-16T08:58:51.380Z,26.08
2023-04-16T09:01:19.036Z,22.05
2023-04-16T09:03:49.034Z,23.35
2023-04-16T09:06:16.578Z,22.48
2023-04-16T09:08:49.061Z,22.13
2023-04-16T09:11:20.481Z,22.20
2023-04-16T09:13:47.572Z,19.05
2023-04-16T09:16:14.921Z,17.55
2023-04-16T09:18:41.555Z,18.77
2023-04-16T09:21:11.125Z,21.20
2023-04-16T09:23:38.862Z,17.27
2023-04-16T09:26:06.006Z,18.52
2023-04-16T09:28:43.430Z,17.15
2023-04-16T09:31:20.091Z,18.05
2023-04-16T09:34:07.311Z,19.27
2023-04-16T09:36:34.576Z,18.15
2023-04-16T09:39:01.836Z,18.60
2023-04-16T09:41:30.097Z,17.90
2023-04-16T09:44:01.873Z,18.38
2023-04-16T09:46:34.644Z,18.77
2023-04-16T09:49:18.605Z,17.13
2023-04-16T09:51:52.686Z,17.60
2023-04-16T09:54:20.338Z,17.40
2023-04-16T09:56:46.960Z,19.00
2023-04-16T09:59:21.135Z,17.33
2023-04-16T10:01:49.508Z,16.65
2023-04-16T10:04:16.924Z,15.77
2023-04-16T10:06:44.126Z,16.83
2023-04-16T10:09:11.014Z,17.35
2023-04-16T10:11:37.810Z,17.25
2023-04-16T10:14:06.855Z,15.82
2023-04-16T10:16:34.555Z,15.52
2023-04-16T10:19:01.352Z,15.80
2023-04-16T10:21:33.762Z,16.90
2023-04-16T10:24:00.795Z,15.50
2023-04-16T10:26:29.005Z,14.27
2023-04-16T10:28:56.042Z,15.35
2023-04-16T10:31:22.873Z,16.52
2023-04-16T10:33:49.872Z,13.63
2023-04-16T10:36:22.657Z,13.68
2023-04-16T10:38:58.363Z,13.48
2023-04-16T10:41:29.165Z,13.27
2023-04-16T10:44:06.459Z,15.55
2023-04-16T10:46:36.754Z,15.82
2023-04-16T10:49:13.965Z,15.80
2023-04-16T10:51:41.227Z,13.38
2023-04-16T10:54:14.508Z,14.82
2023-04-16T10:56:41.011Z,14.73
2023-04-16T10:59:10.978Z,13.35
2023-04-16T11:01:42.349Z,14.40
2023-04-16T11:04:21.387Z,13.52
2023-04-16T11:07:02.144Z,14.18
2023-04-16T11:09:59.379Z,15.63
2023-04-16T11:12:42.109Z,14.27
2023-04-16T11:15:17.048Z,12.07
2023-04-16T11:17:45.704Z,13.90
2023-04-16T11:20:23.499Z,12.38
2023-04-16T11:22:51.782Z,12.68
2023-04-16T11:25:34.011Z,12.65
2023-04-16T11:28:02.316Z,14.73
2023-04-16T11:30:31.473Z,14.18
2023-04-16T11:32:57.917Z,12.27
2023-04-16T11:35:24.481Z,14.35
2023-04-16T11:37:56.329Z,13.23
2023-04-16T11:40:22.824Z,15.23
2023-04-16T11:42:49.282Z,15.57
2023-04-16T11:45:15.678Z,14.85
2023-04-16T11:47:45.676Z,13.85
2023-04-16T11:50:25.055Z,12.85
2023-04-16T11:52:53.692Z,14.23
2023-04-16T11:55:20.662Z,14.05
2023-04-16T11:57:47.150Z,14.85
2023-04-16T12:00:15.022Z,15.00
2023-04-16T12:02:43.340Z,14.15
2023-04-16T12:05:35.616Z,14.80
2023-04-16T12:08:07.331Z,12.27
2023-04-16T12:10:52.468Z,15.07
2023-04-16T12:13:19.705Z,14.60
2023-04-16T12:15:48.218Z,11.18
2023-04-16T12:18:18.345Z,13.95
2023-04-16T12:20:59.397Z,14.07
2023-04-16T12:23:27.953Z,14.05
2023-04-16T12:25:55.274Z,13.90
2023-04-16T12:28:33.577Z,14.38
2023-04-16T12:31:01.689Z,14.60
2023-04-16T12:33:28.339Z,12.30
2023-04-16T12:35:54.929Z,12.55
2023-04-16T12:38:24.076Z,12.88
2023-04-16T12:40:51.231Z,12.38
2023-04-16T12:43:17.900Z,13.48
2023-04-16T12:45:44.545Z,12.07
2023-04-16T12:48:11.496Z,12.38
2023-04-16T12:50:39.596Z,11.63
2023-04-16T12:53:06.253Z,11.63
2023-04-16T12:55:32.874Z,11.98
2023-04-16T12:57:59.288Z,13.50
2023-04-16T13:00:25.789Z,12.23
2023-04-16T13:02:52.273Z,10.68
2023-04-16T13:05:19.307Z,12.45
2023-04-16T13:07:46.147Z,10.82
2023-04-16T13:10:13.632Z,12.32
2023-04-16T13:12:40.259Z,12.32
2023-04-16T13:15:07.335Z,11.43
2023-04-16T13:17:33.774Z,14.30
2023-04-16T13:20:00.326Z,9.75
2023-04-16T13:22:26.787Z,12.73
2023-04-16T13:24:53.290Z,11.05
2023-04-16T13:27:20.301Z,11.07
2023-04-16T13:29:47.123Z,10.98
2023-04-16T13:32:14.700Z,10.15
2023-04-16T13:34:41.151Z,10.65
2023-04-16T13:37:07.744Z,12.18
2023-04-16T13:39:34.171Z,10.23
2023-04-16T13:42:00.694Z,10.55
2023-04-16T13:44:27.133Z,11.93
2023-04-16T13:46:53.635Z,10.65
2023-04-16T13:49:20.230Z,9.65
2023-04-16T13:51:46.786Z,9.07
2023-04-16T13:54:13.247Z,9.48
2023-04-16T13:56:40.784Z,11.77
2023-04-16T13:59:07.977Z,10.38
2023-04-16T14:01:34.633Z,9.32
2023-04-16T14:04:06.276Z,12.23
2023-04-16T14:06:34.334Z,12.70
2023-04-16T14:09:01.271Z,10.95
2023-04-16T14:11:27.847Z,10.25
2023-04-16T14:13:54.793Z,9.73
2023-04-16T14:16:21.319Z,10.55
2023-04-16T14:18:47.913Z,10.35
2023-04-16T14:21:14.416Z,9.75
2023-04-16T14:23:41.125Z,10.52
2023-04-16T14:26:07.596Z,9.82
2023-04-16T14:28:35.534Z,9.40
2023-04-16T14:31:02.075Z,10.20
2023-04-16T14:33:28.564Z,9.30
2023-04-16T14:35:55.146Z,10.10
2023-04-16T14:38:21.921Z,11.95
2023-04-16T14:40:48.736Z,9.70
2023-04-16T14:43:15.501Z,9.43
2023-04-16T14:45:42.002Z,10.05
2023-04-16T14:48:08.584Z,9.93
2023-04-16T14:50:38.898Z,9.52
2023-04-16T14:53:05.637Z,9.10
2023-04-16T14:55:32.424Z,10.18
2023-04-16T14:57:59.728Z,9.48
2023-04-16T15:00:26.451Z,9.90
2023-04-16T15:02:54.215Z,9.85
2023-04-16T15:05:20.834Z,10.27
2023-04-16T15:07:47.525Z,11.02
2023-04-16T15:10:14.054Z,11.25
2023-04-16T15:12:40.753Z,10.25
2023-04-16T15:15:08.622Z,8.90
2023-04-16T15:17:35.427Z,11.25
2023-04-16T15:20:02.072Z,8.95
2023-04-16T15:22:28.597Z,10.23
2023-04-16T15:24:55.104Z,8.70
2023-04-16T15:27:21.643Z,9.90
2023-04-16T15:29:49.399Z,12.95
2023-04-16T15:32:16.111Z,8.75
2023-04-16T15:34:42.569Z,8.35
2023-04-16T15:37:09.667Z,8.25
2023-04-16T15:39:36.097Z,14.70
2023-04-16T15:42:07.054Z,10.95
2023-04-16T15:44:34.505Z,10.60
2023-04-16T15:47:01.083Z,10.20
2023-04-16T15:49:27.638Z,9.35
2023-04-16T15:51:54.289Z,9.65
2023-04-16T15:54:20.790Z,10.20
2023-04-16T15:56:47.333Z,9.25
2023-04-16T15:59:13.817Z,11.45
2023-04-16T16:01:40.859Z,9.57
2023-04-16T16:04:08.028Z,9.98
2023-04-16T16:06:35.009Z,12.23
2023-04-16T16:09:01.768Z,11.38
2023-04-16T16:11:28.471Z,12.75
2023-04-16T16:13:55.187Z,11.10
2023-04-16T16:45:46.505Z,11.88
2023-04-16T16:48:12.982Z,13.93
2023-04-16T16:50:39.485Z,13.63
2023-04-16T16:53:06.238Z,14.45
2023-04-16T16:55:32.753Z,22.33
2023-04-16T16:57:59.262Z,21.75
2023-04-16T17:00:25.826Z,15.38
2023-04-16T17:02:52.625Z,17.35
2023-04-16T17:05:19.849Z,14.25
2023-04-16T17:07:46.687Z,11.65
2023-04-16T17:10:19.959Z,14.93
2023-04-16T17:12:48.358Z,16.88
2023-04-16T17:15:15.560Z,20.05
2023-04-16T17:17:42.484Z,24.45
2023-04-16T17:20:14.645Z,19.30
2023-04-16T17:22:42.049Z,19.05
2023-04-16T17:25:08.860Z,13.93
2023-04-16T17:27:35.842Z,13.10
2023-04-16T17:30:03.485Z,11.35
2023-04-16T17:32:32.501Z,10.25
2023-04-16T17:35:00.495Z,15.60
2023-04-16T17:37:27.361Z,14.65
2023-04-16T17:39:53.921Z,11.98
2023-04-16T17:42:20.561Z,12.40
2023-04-16T17:44:47.233Z,13.05
2023-04-16T17:47:13.804Z,12.70
2023-04-16T17:49:41.840Z,11.10
2023-04-16T17:52:08.377Z,11.98
2023-04-16T17:54:34.849Z,28.60
2023-04-16T17:57:02.244Z,38.97
2023-04-16T17:59:28.963Z,27.40
2023-04-16T18:01:56.742Z,16.25
2023-04-16T18:04:23.659Z,11.70
2023-04-16T18:06:50.343Z,11.05
2023-04-16T18:09:17.195Z,10.77
2023-04-16T18:11:43.695Z,11.77
2023-04-16T18:14:11.597Z,15.25
2023-04-16T18:16:38.445Z,14.15
2023-04-16T18:19:05.552Z,14.48
2023-04-16T18:21:32.150Z,14.25
2023-04-16T18:24:00.859Z,14.27
2023-04-16T18:26:29.633Z,13.25
2023-04-16T18:28:56.647Z,14.38
2023-04-16T18:31:23.244Z,13.70
2023-04-16T18:33:57.244Z,15.15
2023-04-16T18:36:27.503Z,16.40
2023-04-16T18:39:00.866Z,14.75
2023-04-16T18:41:28.510Z,14.68
2023-04-16T18:43:55.047Z,15.23
2023-04-16T18:46:21.630Z,13.32
2023-04-16T18:48:48.518Z,15.07
2023-04-16T18:51:16.262Z,15.55
2023-04-16T18:53:44.368Z,16.85
2023-04-16T18:56:11.667Z,13.93
2023-04-16T18:58:38.598Z,16.95
2023-04-16T19:01:54.331Z,15.40
2023-04-16T19:04:21.318Z,14.48
2023-04-16T19:06:48.527Z,15.75
2023-04-16T19:09:16.005Z,14.00
2023-04-16T19:11:42.874Z,15.85
2023-04-16T19:14:09.309Z,16.52
2023-04-16T19:16:35.797Z,14.82
2023-04-16T19:19:02.408Z,17.23
2023-04-16T19:21:28.870Z,15.88
2023-04-16T19:23:55.385Z,14.98
2023-04-16T19:26:21.857Z,16.25
2023-04-16T19:28:48.283Z,15.20
2023-04-16T19:31:16.095Z,15.50
2023-04-16T19:33:42.599Z,14.93
2023-04-16T19:36:09.053Z,16.83
2023-04-16T19:38:35.486Z,17.08
2023-04-16T19:41:01.923Z,15.60
2023-04-16T19:43:30.809Z,19.08
2023-04-16T19:45:57.764Z,16.58
2023-04-16T19:48:24.349Z,16.92
2023-04-16T19:50:51.202Z,14.98
2023-04-16T19:53:17.861Z,16.35
2023-04-16T19:55:44.330Z,16.40
2023-04-16T19:58:10.953Z,14.63
2023-04-16T20:00:40.764Z,17.85
2023-04-16T20:03:07.479Z,14.27
2023-04-16T20:05:33.974Z,15.35
2023-04-16T20:08:00.552Z,17.45
2023-04-16T20:10:27.765Z,16.17
2023-04-16T20:12:54.219Z,19.05
2023-04-16T20:15:20.850Z,15.07
2023-04-16T20:17:47.404Z,15.90
2023-04-16T20:20:15.761Z,14.55
2023-04-16T20:22:42.830Z,16.23
2023-04-16T20:25:09.776Z,16.48
2023-04-16T20:27:36.253Z,18.30
2023-04-16T20:30:03.602Z,14.15
2023-04-16T20:32:30.138Z,18.88
2023-04-16T20:34:56.596Z,17.38
2023-04-16T20:37:23.092Z,15.10
2023-04-16T20:39:50.264Z,17.85
2023-04-16T20:42:16.743Z,14.48
2023-04-16T20:44:50.305Z,15.82
2023-04-16T20:47:17.215Z,18.83
2023-04-16T20:49:46.462Z,15.93
2023-04-16T20:52:13.886Z,17.88
2023-04-16T20:54:40.519Z,15.55
2023-04-16T20:57:07.615Z,17.35
2023-04-16T20:59:34.077Z,14.40
2023-04-16T21:02:00.784Z,18.30
2023-04-16T21:04:27.420Z,18.75
2023-04-16T21:06:53.982Z,18.13
2023-04-16T21:09:20.788Z,15.75
2023-04-16T21:11:47.277Z,16.52
2023-04-16T21:14:13.791Z,17.08
2023-04-16T21:16:40.384Z,16.20
2023-04-16T21:19:08.625Z,17.63
2023-04-16T21:21:35.341Z,19.13
2023-04-16T21:24:01.822Z,18.52
2023-04-16T21:26:28.361Z,15.18
2023-04-16T21:28:55.251Z,19.15
2023-04-16T21:31:21.954Z,15.93
2023-04-16T21:33:48.509Z,19.27
2023-04-16T21:36:15.536Z,18.08
2023-04-16T21:38:42.056Z,16.48
2023-04-16T21:41:08.485Z,15.93
2023-04-16T21:43:34.914Z,19.48
2023-04-16T21:46:01.409Z,19.50
2023-04-16T21:48:28.502Z,18.60
2023-04-16T21:50:59.828Z,20.70
2023-04-16T21:53:28.049Z,16.85
2023-04-16T21:55:54.567Z,17.52
2023-04-16T21:58:21.002Z,16.20
2023-04-16T22:00:47.549Z,15.95
2023-04-16T22:03:14.872Z,16.38
2023-04-16T22:05:41.412Z,17.63
2023-04-16T22:08:23.610Z,18.35
2023-04-16T22:10:51.364Z,18.48
2023-04-16T22:13:18.078Z,16.60
2023-04-16T22:15:44.588Z,18.70
2023-04-16T22:18:11.493Z,15.25
2023-04-16T22:20:39.249Z,18.50
2023-04-16T22:23:08.937Z,16.75
2023-04-16T22:25:35.484Z,17.17
2023-04-16T22:28:02.018Z,18.85
2023-04-16T22:30:28.484Z,16.83
2023-04-16T22:32:55.279Z,18.50
2023-04-16T22:35:21.882Z,19.02
2023-04-16T22:37:48.322Z,17.88
2023-04-16T22:40:15.663Z,18.38
2023-04-16T22:42:42.281Z,20.60
2023-04-16T22:45:09.004Z,19.75
2023-04-16T22:47:35.641Z,18.42
2023-04-16T22:50:03.296Z,21.10
2023-04-16T22:52:29.791Z,19.13
2023-04-16T22:54:56.210Z,21.55
2023-04-16T22:57:25.359Z,20.33
2023-04-16T22:59:52.992Z,19.13
2023-04-16T23:02:20.703Z,21.77
2023-04-16T23:04:47.914Z,19.73
2023-04-16T23:07:15.586Z,20.63
2023-04-16T23:09:45.316Z,19.27
2023-04-16T23:12:11.768Z,23.05
2023-04-16T23:14:38.192Z,22.50
2023-04-16T23:17:04.752Z,22.75
2023-04-16T23:19:31.709Z,21.10
2023-04-16T23:21:58.201Z,22.13
2023-04-16T23:24:24.881Z,21.48
2023-04-16T23:26:52.442Z,22.65
2023-04-16T23:29:19.739Z,22.92
2023-04-16T23:31:46.271Z,21.75
2023-04-16T23:34:12.780Z,23.95
2023-04-16T23:36:40.573Z,23.20
2023-04-16T23:39:07.068Z,25.52
2023-04-16T23:41:33.519Z,26.25
2023-04-16T23:43:59.964Z,20.67
2023-04-16T23:46:26.491Z,25.42
2023-04-16T23:48:55.109Z,20.90
2023-04-16T23:51:21.622Z,20.55
2023-04-16T23:53:48.053Z,25.55
2023-04-16T23:56:15.394Z,24.20
2023-04-16T23:58:41.809Z,22.38
